Algoma, WI (54201)

3:28 AM CDT on September 05, 2015 (GMT -0500)
5 Miles N of Algoma on Lake Michigan | | Change Station
CLOSE
Current Station
Personal Weather Station
Location: Algoma, WI
Elevation: 610 ft
Nearby Weather Stations
Active Advisory: Special Statement

Elev 610 ft 44.67 °N, 87.38 °W | Updated 12 seconds ago

Fog
Fog
65.8 °F
Feels Like 65.8 °F
N
0.0
Wind Variable Wind from SSE
Gusts 0.0 mph

Today
High -- | Low -- °F
--% Chance of Precip.
Yesterday
High -- | Low -- °F
Precip. -- in
6:16 AM 7:19 PM
Waning Gibbous, 51% visible
Pressure 30.08 in
Visibility 0.2 miles
Clouds Overcast 100 ft
Dew Point 66 °F
Humidity 99%
Rainfall 0.00 in
Snow Depth Not available.
UV 0.0 out of 12
Pollen 8.90 out of 12
Air Quality Not available.
Flu Activity Not available.
METAR KSUE 050815Z AUTO 00000KT M1/4SM OVC001 18/17 A3008 RMK AO1
Pressure 30.08 in
Visibility 0.2 miles
Clouds Overcast 100 ft
Dew Point 66 °F
Humidity 99%
Rainfall 0.00 in
Snow Depth Not available.
UV 0.0 out of 12
Pollen 8.90 out of 12
Air Quality Not available.
Flu Activity Not available.
METAR KSUE 050815Z AUTO 00000KT M1/4SM OVC001 18/17 A3008 RMK AO1

10-Day Weather Forecast

×

Almanac

Astronomy

Sep. 05, 2015 Rise Set
Actual Time
Civil Twilight
Nautical Twilight
Astronomical Twilight
Moon
Length of Visible Light
Length of Day
Tomorrow will be .
, % of the Moon is Illuminated

Today's Extremes

State Highs State Lows

Community

WunderPhotos

Upload Photos

1,852,439 photos uploaded!

WunderBlogs® & News

Nearby

Air Quality

  Air Quality AQ Index Pollutant
Not available.

Snow Depth

Station Depth Elevation

Earthquake Activity

City Distance Mag. Time & Date
Minimum magnitude displayed is 2.5.

Coastal Water Temperatures

Place Temperature

Stations

Nearby Weather Stations

Station Location Temp. Windchill Dew Point Humidity Wind Precip. Elev Updated Type
                   
Special Statement
Statement as of 1:15 AM CDT on September 05, 2015

... Patchy dense fog expected early this morning...

Abundant low level moisture combined with light winds and
mostly clear skies has resulted in patchy dense fog this morning
across northeast Wisconsin. Visibilities will be less than a
quarter mile in some areas... so drive with care and be ready to
slow down when driving in fog. Motorists are urged to exercise
caution... as visibilities can vary significanty in a very short
distance.

Kurimski

115 am CDT Sat Sep 5 2015

... Patchy dense fog expected early this morning...

Abundant low level moisture combined with light winds and
mostly clear skies has resulted in patchy dense fog this morning
across northeast Wisconsin. Visibilities will be less than a
quarter mile in some areas... so drive with care and be ready to
slow down when driving in fog. Motorists are urged to exercise
caution... as visibilities can vary significanty in a very short
distance.

Kurimski